Time;durP1;ratioP1;P1;durP2;ratioP2;P2;SDS_P1;SDS_P2;PMS_P1;PMS_P2;Temp;Humidity;BMP_temperature;BMP_pressure;BME280_temperature;BME280_humidity;BME280_pressure;Samples;Min_cycle;Max_cycle;Signal;HPM_P1;HPM_P2
2022/07/11 00:02:21;;;;;;;0.00;0.00;;;;;;;;;;5069228;28;20499;-61
2022/07/11 00:04:47;;;;;;;0.00;0.00;;;;;;;;;;5069206;28;20114;-61
2022/07/11 00:07:14;;;;;;;0.00;0.00;;;;;;;;;;5068531;28;20132;-61
2022/07/11 00:09:41;;;;;;;0.00;0.00;;;;;;;;;;5069465;28;20057;-61
2022/07/11 00:12:08;;;;;;;0.00;0.00;;;;;;;;;;5069566;28;20115;-61
2022/07/11 00:14:35;;;;;;;0.00;0.00;;;;;;;;;;5071421;28;20099;-61
2022/07/11 00:17:01;;;;;;;0.00;0.00;;;;;;;;;;5069187;28;20526;-61
2022/07/11 00:19:27;;;;;;;0.00;0.00;;;;;;;;;;5077192;28;20102;-61
2022/07/11 00:21:54;;;;;;;0.00;0.00;;;;;;;;;;5088745;28;20049;-61
2022/07/11 00:24:21;;;;;;;0.00;0.00;;;;;;;;;;5089256;28;20490;-61
2022/07/11 00:26:48;;;;;;;0.00;0.00;;;;;;;;;;5083303;28;20088;-61
2022/07/11 00:29:14;;;;;;;0.00;0.00;;;;;;;;;;5067411;28;20088;-61
2022/07/11 00:31:41;;;;;;;0.00;0.00;;;;;;;;;;5073241;28;20130;-61
2022/07/11 00:34:07;;;;;;;0.00;0.00;;;;;;;;;;5089247;28;20056;-60
2022/07/11 00:36:34;;;;;;;0.10;0.10;;;;;;;;;;5087534;28;20087;-61
2022/07/11 00:39:00;;;;;;;0.00;0.00;;;;;;;;;;5067341;28;20174;-61
2022/07/11 00:41:26;;;;;;;0.00;0.00;;;;;;;;;;5068624;28;20084;-61
2022/07/11 00:43:55;;;;;;;0.00;0.00;;;;;;;;;;5068242;28;20110;-60
2022/07/11 00:46:22;;;;;;;0.00;0.00;;;;;;;;;;5069077;28;20057;-61
2022/07/11 00:48:49;;;;;;;0.00;0.00;;;;;;;;;;5070144;28;20041;-61
2022/07/11 00:51:17;;;;;;;0.00;0.00;;;;;;;;;;5069542;28;20088;-61
2022/07/11 00:53:43;;;;;;;0.05;0.05;;;;;;;;;;5068872;28;20049;-61
2022/07/11 00:56:11;;;;;;;0.00;0.00;;;;;;;;;;5068777;28;20064;-61
2022/07/11 00:58:37;;;;;;;0.00;0.00;;;;;;;;;;5068131;28;20107;-61
2022/07/11 01:01:04;;;;;;;0.00;0.00;;;;;;;;;;5068702;28;20080;-61
2022/07/11 01:03:30;;;;;;;0.00;0.00;;;;;;;;;;5068245;28;20131;-61
2022/07/11 01:05:56;;;;;;;0.00;0.00;;;;;;;;;;5068320;28;20057;-61
2022/07/11 01:08:24;;;;;;;0.00;0.00;;;;;;;;;;5067646;28;20053;-59
2022/07/11 01:10:50;;;;;;;0.00;0.00;;;;;;;;;;5068524;28;20545;-60
2022/07/11 01:13:16;;;;;;;0.00;0.00;;;;;;;;;;5068214;28;20057;-61
2022/07/11 01:15:43;;;;;;;0.00;0.00;;;;;;;;;;5067763;28;20053;-61
2022/07/11 01:18:09;;;;;;;0.00;0.00;;;;;;;;;;5069290;28;20045;-61
2022/07/11 01:20:36;;;;;;;0.00;0.00;;;;;;;;;;5068278;28;20106;-61
2022/07/11 01:23:03;;;;;;;0.00;0.00;;;;;;;;;;5068150;28;20565;-61
2022/07/11 01:25:30;;;;;;;0.00;0.00;;;;;;;;;;5067147;28;20572;-61
2022/07/11 01:27:57;;;;;;;0.00;0.00;;;;;;;;;;5067535;28;20048;-61
2022/07/11 01:30:25;;;;;;;0.00;0.00;;;;;;;;;;5083755;28;20084;-61
2022/07/11 01:32:52;;;;;;;0.00;0.00;;;;;;;;;;5088452;28;20075;-61
2022/07/11 01:35:19;;;;;;;0.00;0.00;;;;;;;;;;5088589;28;20057;-60
2022/07/11 01:37:46;;;;;;;0.00;0.00;;;;;;;;;;5070115;28;20084;-61
2022/07/11 01:40:12;;;;;;;0.00;0.00;;;;;;;;;;5066542;28;20103;-61
2022/07/11 01:42:39;;;;;;;0.00;0.00;;;;;;;;;;5067971;28;20107;-60
2022/07/11 01:45:06;;;;;;;0.00;0.00;;;;;;;;;;5068343;28;20057;-61
2022/07/11 01:47:32;;;;;;;0.00;0.00;;;;;;;;;;5069082;28;20142;-60
2022/07/11 01:49:58;;;;;;;0.00;0.00;;;;;;;;;;5067390;28;20626;-61
2022/07/11 01:52:25;;;;;;;0.00;0.00;;;;;;;;;;5067484;28;20088;-60
2022/07/11 01:54:52;;;;;;;0.00;0.00;;;;;;;;;;5068652;28;20056;-61
2022/07/11 01:57:18;;;;;;;0.00;0.00;;;;;;;;;;5066874;28;20081;-61
2022/07/11 01:59:44;;;;;;;0.00;0.00;;;;;;;;;;5067167;28;20111;-61
2022/07/11 02:02:11;;;;;;;0.00;0.00;;;;;;;;;;5067989;28;20093;-61
2022/07/11 02:04:37;;;;;;;0.00;0.00;;;;;;;;;;5066785;28;20041;-61
2022/07/11 02:07:04;;;;;;;0.00;0.00;;;;;;;;;;5066447;28;20111;-61
2022/07/11 02:09:30;;;;;;;0.00;0.00;;;;;;;;;;5067531;28;20057;-61
2022/07/11 02:11:56;;;;;;;0.00;0.00;;;;;;;;;;5068059;28;20096;-61
2022/07/11 02:14:23;;;;;;;0.10;0.00;;;;;;;;;;5066915;28;20053;-61
2022/07/11 02:16:49;;;;;;;0.00;0.00;;;;;;;;;;5067146;28;20053;-61
2022/07/11 02:19:16;;;;;;;0.00;0.00;;;;;;;;;;5067191;28;20131;-61
2022/07/11 02:21:42;;;;;;;0.00;0.00;;;;;;;;;;5066694;28;20057;-61
2022/07/11 02:24:09;;;;;;;0.00;0.00;;;;;;;;;;5067568;28;20576;-61
2022/07/11 02:26:35;;;;;;;0.00;0.00;;;;;;;;;;5066704;28;20529;-61
2022/07/11 02:29:01;;;;;;;0.00;0.00;;;;;;;;;;5066481;28;20076;-61
2022/07/11 02:31:28;;;;;;;0.00;0.00;;;;;;;;;;5066273;28;20115;-61
2022/07/11 02:33:54;;;;;;;0.00;0.00;;;;;;;;;;5067038;28;20057;-61
2022/07/11 02:36:21;;;;;;;0.00;0.00;;;;;;;;;;5066086;28;20061;-61
2022/07/11 02:38:47;;;;;;;0.00;0.00;;;;;;;;;;5067697;28;20060;-61
2022/07/11 02:41:13;;;;;;;0.00;0.00;;;;;;;;;;5066654;28;20061;-61
2022/07/11 02:43:40;;;;;;;0.00;0.00;;;;;;;;;;5066910;28;20138;-61
2022/07/11 02:46:06;;;;;;;0.00;0.00;;;;;;;;;;5066645;28;20060;-61
2022/07/11 02:48:33;;;;;;;0.00;0.00;;;;;;;;;;5067337;28;20499;-61
2022/07/11 02:50:59;;;;;;;0.00;0.00;;;;;;;;;;5066879;28;20111;-61
2022/07/11 02:53:26;;;;;;;0.00;0.00;;;;;;;;;;5069846;28;20102;-61
2022/07/11 02:55:52;;;;;;;0.00;0.00;;;;;;;;;;5069409;28;20053;-61
2022/07/11 02:58:18;;;;;;;0.00;0.00;;;;;;;;;;5076662;28;20491;-61
2022/07/11 03:00:45;;;;;;;0.00;0.00;;;;;;;;;;5082438;28;20088;-61
2022/07/11 03:03:11;;;;;;;0.00;0.00;;;;;;;;;;5069954;28;20057;-61
2022/07/11 03:05:38;;;;;;;0.00;0.00;;;;;;;;;;5069707;28;20096;-61
2022/07/11 03:08:04;;;;;;;0.00;0.00;;;;;;;;;;5069567;28;20056;-61
2022/07/11 03:10:31;;;;;;;0.00;0.00;;;;;;;;;;5069262;28;20989;-60
2022/07/11 03:12:57;;;;;;;0.00;0.00;;;;;;;;;;5069948;28;20057;-61
2022/07/11 03:15:23;;;;;;;0.00;0.00;;;;;;;;;;5070175;28;20084;-61
2022/07/11 03:17:50;;;;;;;0.00;0.00;;;;;;;;;;5069636;28;20107;-61
2022/07/11 03:20:17;;;;;;;0.00;0.00;;;;;;;;;;5070614;28;20052;-61
2022/07/11 03:22:43;;;;;;;0.00;0.00;;;;;;;;;;5070179;28;20149;-61
2022/07/11 03:25:10;;;;;;;0.00;0.00;;;;;;;;;;5068478;28;20053;-61
2022/07/11 03:27:36;;;;;;;0.00;0.00;;;;;;;;;;5069730;28;20053;-61
2022/07/11 03:30:03;;;;;;;0.00;0.00;;;;;;;;;;5069489;28;20053;-61
2022/07/11 03:32:29;;;;;;;0.15;0.15;;;;;;;;;;5068387;28;21224;-61
2022/07/11 03:37:41;;;;;;;0.00;0.00;;;;;;;;;;5069479;28;20136;-60
2022/07/11 03:40:08;;;;;;;0.00;0.00;;;;;;;;;;5069807;28;20084;-61
2022/07/11 03:42:36;;;;;;;0.00;0.00;;;;;;;;;;5069056;28;20080;-61
2022/07/11 03:45:02;;;;;;;0.00;0.00;;;;;;;;;;5069171;28;20057;-61
2022/07/11 03:47:28;;;;;;;0.00;0.00;;;;;;;;;;5069883;28;21001;-61
2022/07/11 03:49:55;;;;;;;0.00;0.00;;;;;;;;;;5069393;28;20503;-61
2022/07/11 03:52:21;;;;;;;0.00;0.00;;;;;;;;;;5069257;28;20499;-60
2022/07/11 03:54:47;;;;;;;0.00;0.00;;;;;;;;;;5069289;28;20061;-61
2022/07/11 03:57:14;;;;;;;0.00;0.00;;;;;;;;;;5069408;28;20057;-61
2022/07/11 03:59:40;;;;;;;0.00;0.00;;;;;;;;;;5069100;28;20057;-61
2022/07/11 04:02:07;;;;;;;0.00;0.00;;;;;;;;;;5069254;28;20048;-61
2022/07/11 04:04:34;;;;;;;0.00;0.00;;;;;;;;;;5070222;28;20048;-61
2022/07/11 04:07:00;;;;;;;0.00;0.00;;;;;;;;;;5068703;28;20088;-61
2022/07/11 04:09:26;;;;;;;0.00;0.00;;;;;;;;;;5069742;28;20596;-60
2022/07/11 04:11:53;;;;;;;0.00;0.00;;;;;;;;;;5069410;28;20545;-61
2022/07/11 04:14:19;;;;;;;0.00;0.00;;;;;;;;;;5068677;28;20123;-61
2022/07/11 04:16:45;;;;;;;0.00;0.00;;;;;;;;;;5068379;28;20084;-60
2022/07/11 04:19:12;;;;;;;0.00;0.00;;;;;;;;;;5068911;28;20083;-61
2022/07/11 04:21:38;;;;;;;0.00;0.00;;;;;;;;;;5078548;28;20052;-61
2022/07/11 04:24:05;;;;;;;0.00;0.00;;;;;;;;;;5088863;28;20410;-61
2022/07/11 04:26:31;;;;;;;0.00;0.00;;;;;;;;;;5068953;28;20096;-61
2022/07/11 04:28:57;;;;;;;0.00;0.00;;;;;;;;;;5068739;28;20130;-61
2022/07/11 04:31:24;;;;;;;0.00;0.00;;;;;;;;;;5067840;28;20047;-61
2022/07/11 04:33:51;;;;;;;0.00;0.00;;;;;;;;;;5068968;28;20064;-61
2022/07/11 04:36:17;;;;;;;0.00;0.00;;;;;;;;;;5068477;28;20053;-61
2022/07/11 04:38:44;;;;;;;0.00;0.00;;;;;;;;;;5068289;28;20499;-61
2022/07/11 04:41:10;;;;;;;0.00;0.00;;;;;;;;;;5067775;28;20107;-61
2022/07/11 04:43:37;;;;;;;0.00;0.00;;;;;;;;;;5068775;28;20049;-61
2022/07/11 04:46:07;;;;;;;0.00;0.00;;;;;;;;;;5068449;28;20052;-61
2022/07/11 04:48:33;;;;;;;0.00;0.00;;;;;;;;;;5068808;28;20080;-61
2022/07/11 04:50:59;;;;;;;0.00;0.00;;;;;;;;;;5068409;28;20106;-61
2022/07/11 04:53:26;;;;;;;0.00;0.00;;;;;;;;;;5067941;28;20053;-61
2022/07/11 04:55:52;;;;;;;0.00;0.00;;;;;;;;;;5066968;28;20092;-61
2022/07/11 04:58:18;;;;;;;0.00;0.00;;;;;;;;;;5068514;28;20111;-61
2022/07/11 05:00:45;;;;;;;0.00;0.00;;;;;;;;;;5069832;28;20597;-61
2022/07/11 05:03:12;;;;;;;0.00;0.00;;;;;;;;;;5068544;28;20057;-61
2022/07/11 05:05:38;;;;;;;0.00;0.00;;;;;;;;;;5067460;28;20084;-61
2022/07/11 05:08:04;;;;;;;0.00;0.00;;;;;;;;;;5068184;28;20057;-60
2022/07/11 05:10:36;;;;;;;0.00;0.00;;;;;;;;;;5068412;28;20052;-61
2022/07/11 05:13:02;;;;;;;0.00;0.00;;;;;;;;;;5067715;28;20057;-61
2022/07/11 05:15:29;;;;;;;0.00;0.00;;;;;;;;;;5069424;28;20678;-61
2022/07/11 05:17:55;;;;;;;0.00;0.00;;;;;;;;;;5068147;28;20144;-61
2022/07/11 05:20:21;;;;;;;0.00;0.00;;;;;;;;;;5067109;28;20060;-61
2022/07/11 05:22:48;;;;;;;0.00;0.00;;;;;;;;;;5075121;28;20053;-61
2022/07/11 05:25:14;;;;;;;0.00;0.00;;;;;;;;;;5069899;28;20674;-61
2022/07/11 05:27:40;;;;;;;0.00;0.00;;;;;;;;;;5067546;28;20056;-61
2022/07/11 05:30:07;;;;;;;0.00;0.00;;;;;;;;;;5067346;28;20482;-61
2022/07/11 05:32:33;;;;;;;0.00;0.00;;;;;;;;;;5074609;27;20111;-61
2022/07/11 05:35:03;;;;;;;0.00;0.00;;;;;;;;;;5069353;28;20074;-61
2022/07/11 05:37:30;;;;;;;0.00;0.00;;;;;;;;;;5067153;28;20048;-61
2022/07/11 05:39:56;;;;;;;0.00;0.00;;;;;;;;;;5067424;28;20084;-61
2022/07/11 05:42:30;;;;;;;0.00;0.00;;;;;;;;;;5072537;28;20073;-61
2022/07/11 05:44:57;;;;;;;0.00;0.00;;;;;;;;;;5085218;28;20102;-61
2022/07/11 05:47:23;;;;;;;0.00;0.00;;;;;;;;;;5079542;28;20906;-61
2022/07/11 05:49:50;;;;;;;0.00;0.00;;;;;;;;;;5085660;28;20056;-61
2022/07/11 05:52:16;;;;;;;0.00;0.00;;;;;;;;;;5088579;28;20052;-61
2022/07/11 05:54:42;;;;;;;0.00;0.00;;;;;;;;;;5088061;28;20068;-61
2022/07/11 05:57:09;;;;;;;0.00;0.00;;;;;;;;;;5088303;28;20084;-61
2022/07/11 05:59:35;;;;;;;0.00;0.00;;;;;;;;;;5087627;28;20056;-61
2022/07/11 06:02:02;;;;;;;0.00;0.00;;;;;;;;;;5088117;28;20133;-60
2022/07/11 06:04:29;;;;;;;0.00;0.00;;;;;;;;;;5078856;28;20049;-61
2022/07/11 06:06:55;;;;;;;0.00;0.00;;;;;;;;;;5067542;28;20049;-61
2022/07/11 06:09:21;;;;;;;0.00;0.00;;;;;;;;;;5067291;28;20095;-61
2022/07/11 06:11:49;;;;;;;0.00;0.00;;;;;;;;;;5075540;28;20130;-61
2022/07/11 06:14:16;;;;;;;0.00;0.00;;;;;;;;;;5066449;28;20509;-61
2022/07/11 06:16:42;;;;;;;0.00;0.00;;;;;;;;;;5067529;28;20578;-61
2022/07/11 06:19:09;;;;;;;0.00;0.00;;;;;;;;;;5067388;28;20120;-61
2022/07/11 06:21:35;;;;;;;0.00;0.00;;;;;;;;;;5069617;28;20103;-60
2022/07/11 06:24:01;;;;;;;0.00;0.00;;;;;;;;;;5070024;28;20084;-60
2022/07/11 06:26:28;;;;;;;0.00;0.00;;;;;;;;;;5088495;28;20049;-61
2022/07/11 06:28:55;;;;;;;0.00;0.00;;;;;;;;;;5081789;28;20204;-60
2022/07/11 06:31:21;;;;;;;0.00;0.00;;;;;;;;;;5075123;28;20142;-60
2022/07/11 06:33:54;;;;;;;0.00;0.00;;;;;;;;;;5070635;28;20063;-61
2022/07/11 06:36:25;;;;;;;0.00;0.00;;;;;;;;;;5077144;28;20111;-60
2022/07/11 06:38:52;;;;;;;0.00;0.00;;;;;;;;;;5075711;28;20527;-60
2022/07/11 06:41:18;;;;;;;0.00;0.00;;;;;;;;;;5077730;28;20142;-60
2022/07/11 06:43:47;;;;;;;0.00;0.00;;;;;;;;;;5070735;28;20056;-60
2022/07/11 06:46:15;;;;;;;0.00;0.00;;;;;;;;;;5072806;28;20135;-60
2022/07/11 06:48:41;;;;;;;0.00;0.00;;;;;;;;;;5070209;28;20076;-60
2022/07/11 06:51:09;;;;;;;0.00;0.00;;;;;;;;;;5070455;28;20053;-60
2022/07/11 06:53:35;;;;;;;0.00;0.00;;;;;;;;;;5069632;28;20111;-60
2022/07/11 06:56:01;;;;;;;0.00;0.00;;;;;;;;;;5070044;28;20061;-60
2022/07/11 06:58:31;;;;;;;0.00;0.00;;;;;;;;;;5070378;28;20064;-60
2022/07/11 07:00:59;;;;;;;0.00;0.00;;;;;;;;;;5069917;28;20049;-60
2022/07/11 07:03:25;;;;;;;0.00;0.00;;;;;;;;;;5070104;28;20049;-60
2022/07/11 07:05:55;;;;;;;0.00;0.00;;;;;;;;;;5072393;28;20067;-60
2022/07/11 07:08:25;;;;;;;0.00;0.00;;;;;;;;;;5071464;28;20057;-59
2022/07/11 07:10:52;;;;;;;0.00;0.00;;;;;;;;;;5072626;28;20057;-59
2022/07/11 07:13:19;;;;;;;0.00;0.00;;;;;;;;;;5069831;28;20061;-59
2022/07/11 07:15:46;;;;;;;0.00;0.00;;;;;;;;;;5069272;28;20049;-59
2022/07/11 07:18:12;;;;;;;0.00;0.00;;;;;;;;;;5075098;28;20111;-59
2022/07/11 07:20:39;;;;;;;0.00;0.00;;;;;;;;;;5088227;28;20832;-59
2022/07/11 07:23:05;;;;;;;0.00;0.00;;;;;;;;;;5083053;28;20057;-59
2022/07/11 07:25:32;;;;;;;0.00;0.00;;;;;;;;;;5070127;28;20053;-59
2022/07/11 07:27:58;;;;;;;0.00;0.00;;;;;;;;;;5069499;28;20568;-59
2022/07/11 07:30:25;;;;;;;0.00;0.00;;;;;;;;;;5070110;28;20061;-59
2022/07/11 07:32:51;;;;;;;0.00;0.00;;;;;;;;;;5071070;28;20087;-59
2022/07/11 07:35:17;;;;;;;0.00;0.00;;;;;;;;;;5076835;28;20052;-59
2022/07/11 07:37:44;;;;;;;0.00;0.00;;;;;;;;;;5089480;28;20098;-59
2022/07/11 07:40:10;;;;;;;0.00;0.00;;;;;;;;;;5076081;28;20110;-58
2022/07/11 07:42:37;;;;;;;0.00;0.00;;;;;;;;;;5090366;28;20104;-59
2022/07/11 07:45:10;;;;;;;0.00;0.00;;;;;;;;;;5078950;28;20064;-59
2022/07/11 07:47:37;;;;;;;0.00;0.00;;;;;;;;;;5068931;28;20088;-59
2022/07/11 07:50:04;;;;;;;0.00;0.00;;;;;;;;;;5073852;28;20493;-59
2022/07/11 07:52:32;;;;;;;0.17;0.13;;;;;;;;;;5070469;28;20601;-59
2022/07/11 07:54:58;;;;;;;;;;;;;;;;;;5071556;28;20088;-59
2022/07/11 07:57:25;;;;;;;0.00;0.00;;;;;;;;;;5069714;28;45714;-59
2022/07/11 08:01:34;;;;;;;0.00;0.00;;;;;;;;;;5070396;28;20056;-59
2022/07/11 08:02:37;;;;;;;0.00;0.00;;;;;;;;;;5070041;28;20053;-59
2022/07/11 08:05:04;;;;;;;0.00;0.00;;;;;;;;;;5069150;28;20061;-59
2022/07/11 08:07:30;;;;;;;0.00;0.00;;;;;;;;;;5068409;28;20211;-59
2022/07/11 08:09:57;;;;;;;0.00;0.00;;;;;;;;;;5069424;28;20574;-62
2022/07/11 08:12:23;;;;;;;0.00;0.00;;;;;;;;;;5068786;28;20061;-62
2022/07/11 08:14:49;;;;;;;0.00;0.00;;;;;;;;;;5079114;28;20048;-62
2022/07/11 08:17:19;;;;;;;0.00;0.00;;;;;;;;;;5089662;28;20056;-62
2022/07/11 08:19:46;;;;;;;0.00;0.00;;;;;;;;;;5089028;28;20052;-62
2022/07/11 08:22:12;;;;;;;0.00;0.00;;;;;;;;;;5085286;28;20049;-62
2022/07/11 08:24:38;;;;;;;0.00;0.00;;;;;;;;;;5089938;28;20061;-62
2022/07/11 08:27:05;;;;;;;0.00;0.00;;;;;;;;;;5073824;28;20589;-63
2022/07/11 08:29:51;;;;;;;0.00;0.00;;;;;;;;;;5067716;28;20045;-63
2022/07/11 08:32:18;;;;;;;0.00;0.00;;;;;;;;;;5074652;28;20115;-64
2022/07/11 08:34:44;;;;;;;0.00;0.00;;;;;;;;;;5088794;28;20435;-62
2022/07/11 08:37:11;;;;;;;0.00;0.00;;;;;;;;;;5087971;28;20048;-61
2022/07/11 08:39:38;;;;;;;0.00;0.00;;;;;;;;;;5089419;28;20499;-62
2022/07/11 08:42:10;;;;;;;0.00;0.00;;;;;;;;;;5073356;28;20057;-62
2022/07/11 08:44:37;;;;;;;0.00;0.00;;;;;;;;;;5068922;28;20557;-60
2022/07/11 08:47:04;;;;;;;0.00;0.00;;;;;;;;;;5069043;28;20084;-59
2022/07/11 08:49:31;;;;;;;0.00;0.00;;;;;;;;;;5067325;28;20049;-59
2022/07/11 08:51:58;;;;;;;0.00;0.00;;;;;;;;;;5068714;28;20541;-62
2022/07/11 08:54:24;;;;;;;0.00;0.00;;;;;;;;;;5068576;28;20115;-64
2022/07/11 08:56:52;;;;;;;0.00;0.00;;;;;;;;;;5068086;28;20111;-63
2022/07/11 08:59:19;;;;;;;0.00;0.00;;;;;;;;;;5068211;28;20057;-63
2022/07/11 09:01:46;;;;;;;0.00;0.00;;;;;;;;;;5070012;28;20122;-63
2022/07/11 09:04:13;;;;;;;0.00;0.00;;;;;;;;;;5068182;28;20087;-63
2022/07/11 09:06:40;;;;;;;0.00;0.00;;;;;;;;;;5068527;28;20148;-63
2022/07/11 09:09:06;;;;;;;0.00;0.00;;;;;;;;;;5087131;28;20495;-65
2022/07/11 09:11:52;;;;;;;0.00;0.00;;;;;;;;;;5085183;28;20495;-67
2022/07/11 09:14:25;;;;;;;0.00;0.00;;;;;;;;;;5087647;28;20129;-62
2022/07/11 09:16:54;;;;;;;0.00;0.00;;;;;;;;;;5071909;28;20055;-64
2022/07/11 09:19:22;;;;;;;0.00;0.00;;;;;;;;;;5067929;28;20156;-63
2022/07/11 09:27:20;;;;;;;0.00;0.00;;;;;;;;;;5076174;28;20143;-65
2022/07/11 09:29:46;;;;;;;0.00;0.00;;;;;;;;;;5067493;28;20099;-65
2022/07/11 09:32:13;;;;;;;0.00;0.00;;;;;;;;;;5068668;28;20093;-65
2022/07/11 09:34:40;;;;;;;0.00;0.00;;;;;;;;;;5067561;28;20076;-64
2022/07/11 09:37:12;;;;;;;0.00;0.00;;;;;;;;;;5086615;28;20102;-63
2022/07/11 09:39:39;;;;;;;0.00;0.00;;;;;;;;;;5087813;28;20057;-62
2022/07/11 09:42:05;;;;;;;0.00;0.00;;;;;;;;;;5083306;28;20057;-64
2022/07/11 09:44:33;;;;;;;0.00;0.00;;;;;;;;;;5071678;28;20565;-63
2022/07/11 09:47:02;;;;;;;0.20;0.20;;;;;;;;;;5067817;28;20085;-63
2022/07/11 09:49:36;;;;;;;0.00;0.00;;;;;;;;;;5067558;28;20053;-62
2022/07/11 09:52:06;;;;;;;0.00;0.00;;;;;;;;;;5067273;28;20483;-62
2022/07/11 09:54:32;;;;;;;0.00;0.00;;;;;;;;;;5067373;28;20451;-63
2022/07/11 09:56:58;;;;;;;0.00;0.00;;;;;;;;;;5068398;28;20517;-63
2022/07/11 09:59:25;;;;;;;0.00;0.00;;;;;;;;;;5070134;28;20061;-63
2022/07/11 10:01:51;;;;;;;0.00;0.00;;;;;;;;;;5072872;28;20080;-63
2022/07/11 10:04:18;;;;;;;0.00;0.00;;;;;;;;;;5090553;28;20056;-63
2022/07/11 10:06:45;;;;;;;0.00;0.00;;;;;;;;;;5072672;28;20065;-62
2022/07/11 10:09:11;;;;;;;0.00;0.00;;;;;;;;;;5077124;28;20116;-63
2022/07/11 10:11:38;;;;;;;0.00;0.00;;;;;;;;;;5077201;28;20053;-64
2022/07/11 10:14:04;;;;;;;0.00;0.00;;;;;;;;;;5072079;28;20491;-64
2022/07/11 10:16:34;;;;;;;0.00;0.00;;;;;;;;;;5070576;28;20052;-63
2022/07/11 10:19:19;;;;;;;0.00;0.00;;;;;;;;;;5070988;28;20053;-63
2022/07/11 10:21:48;;;;;;;0.00;0.00;;;;;;;;;;5068892;28;20127;-64
2022/07/11 10:24:18;;;;;;;0.00;0.00;;;;;;;;;;5070305;28;20079;-63
2022/07/11 10:27:03;;;;;;;0.00;0.00;;;;;;;;;;5070266;28;20049;-64
2022/07/11 10:29:35;;;;;;;0.00;0.00;;;;;;;;;;5070708;28;20056;-64
2022/07/11 10:32:04;;;;;;;0.00;0.00;;;;;;;;;;5072425;28;20530;-64
2022/07/11 10:34:39;;;;;;;0.00;0.00;;;;;;;;;;5071102;28;20194;-64
2022/07/11 10:37:07;;;;;;;0.00;0.00;;;;;;;;;;5089600;28;20056;-64
2022/07/11 10:39:34;;;;;;;0.00;0.00;;;;;;;;;;5091458;28;20061;-63
2022/07/11 10:42:02;;;;;;;0.00;0.00;;;;;;;;;;5082113;28;20088;-65
2022/07/11 10:44:46;;;;;;;0.00;0.00;;;;;;;;;;5073690;28;20054;-66
2022/07/11 10:47:31;;;;;;;0.00;0.00;;;;;;;;;;5076431;28;20116;-64
2022/07/11 10:50:00;;;;;;;0.00;0.00;;;;;;;;;;5071119;28;20503;-65
2022/07/11 10:52:31;;;;;;;0.00;0.00;;;;;;;;;;5076558;28;20890;-65
2022/07/11 10:55:31;;;;;;;0.00;0.00;;;;;;;;;;5084314;28;20558;-65
2022/07/11 10:58:08;;;;;;;0.00;0.00;;;;;;;;;;5071698;28;20573;-65
2022/07/11 11:00:35;;;;;;;0.00;0.00;;;;;;;;;;5071865;28;20057;-65
2022/07/11 11:03:05;;;;;;;0.00;0.00;;;;;;;;;;5070354;28;20045;-66
2022/07/11 11:05:52;;;;;;;0.00;0.00;;;;;;;;;;5071675;28;20136;-66
2022/07/11 11:08:34;;;;;;;0.00;0.00;;;;;;;;;;5070742;28;20518;-67
2022/07/11 11:11:05;;;;;;;0.00;0.00;;;;;;;;;;5070866;28;20498;-67
2022/07/11 11:13:35;;;;;;;0.00;0.00;;;;;;;;;;5070206;28;20126;-66
2022/07/11 11:16:18;;;;;;;0.00;0.00;;;;;;;;;;5073914;28;20061;-72
2022/07/11 11:18:44;;;;;;;0.00;0.00;;;;;;;;;;5072318;28;20060;-67
2022/07/11 11:21:11;;;;;;;0.00;0.00;;;;;;;;;;5086020;28;20107;-64
2022/07/11 11:23:41;;;;;;;0.00;0.00;;;;;;;;;;5083989;28;20048;-66
2022/07/11 11:26:15;;;;;;;0.00;0.00;;;;;;;;;;5090953;28;20048;-68
2022/07/11 11:28:58;;;;;;;0.00;0.00;;;;;;;;;;5091135;28;20088;-65
2022/07/11 11:31:25;;;;;;;0.00;0.00;;;;;;;;;;5079319;28;20144;-64
2022/07/11 11:33:52;;;;;;;0.00;0.00;;;;;;;;;;5070066;28;20104;-64
2022/07/11 11:36:19;;;;;;;0.00;0.00;;;;;;;;;;5070930;28;20099;-69
2022/07/11 11:38:46;;;;;;;0.00;0.00;;;;;;;;;;5071222;28;20083;-67
2022/07/11 11:41:13;;;;;;;0.00;0.00;;;;;;;;;;5090895;28;20499;-65
2022/07/11 11:43:44;;;;;;;0.00;0.00;;;;;;;;;;5089582;28;20107;-64
2022/07/11 11:46:11;;;;;;;0.00;0.00;;;;;;;;;;5078177;28;20119;-69
2022/07/11 11:48:38;;;;;;;0.00;0.00;;;;;;;;;;5070866;28;20171;-69
2022/07/11 11:51:06;;;;;;;0.00;0.00;;;;;;;;;;5071013;28;20318;-69
2022/07/11 11:53:37;;;;;;;0.00;0.00;;;;;;;;;;5072587;28;20048;-65
2022/07/11 11:56:17;;;;;;;0.00;0.00;;;;;;;;;;5077602;28;20818;-63
2022/07/11 11:58:43;;;;;;;0.00;0.00;;;;;;;;;;5087411;28;20102;-63
2022/07/11 12:01:11;;;;;;;0.00;0.00;;;;;;;;;;5079104;28;20084;-66
2022/07/11 12:03:54;;;;;;;0.00;0.00;;;;;;;;;;5070685;28;20107;-67
2022/07/11 12:06:23;;;;;;;0.00;0.00;;;;;;;;;;5071003;28;20213;-65
2022/07/11 12:08:50;;;;;;;0.00;0.00;;;;;;;;;;5088246;28;20136;-68
2022/07/11 12:11:16;;;;;;;0.00;0.00;;;;;;;;;;5075858;28;20057;-68
2022/07/11 12:13:43;;;;;;;0.00;0.00;;;;;;;;;;5069721;28;20801;-65
2022/07/11 12:19:03;;;;;;;0.00;0.00;;;;;;;;;;5069088;28;20529;-66
2022/07/11 12:21:29;;;;;;;0.00;0.00;;;;;;;;;;5069436;28;20060;-65
